sensor_id;sensor_type;location;lat;lon;timestamp;P1;durP1;ratioP1;P2;durP2;ratioP2
83097;SDS011;72971;47.204;8.582;2023-11-21T00:00:48;0.57;;;0.50;;
83097;SDS011;72971;47.204;8.582;2023-11-21T00:05:51;0.80;;;0.60;;
83097;SDS011;72971;47.204;8.582;2023-11-21T00:10:55;0.45;;;0.45;;
83097;SDS011;72971;47.204;8.582;2023-11-21T00:15:58;0.93;;;0.53;;
83097;SDS011;72971;47.204;8.582;2023-11-21T00:21:02;0.57;;;0.40;;
83097;SDS011;72971;47.204;8.582;2023-11-21T00:26:05;1.10;;;0.50;;
83097;SDS011;72971;47.204;8.582;2023-11-21T00:31:08;0.70;;;0.57;;
83097;SDS011;72971;47.204;8.582;2023-11-21T00:36:10;0.88;;;0.40;;
83097;SDS011;72971;47.204;8.582;2023-11-21T00:41:13;0.78;;;0.40;;
83097;SDS011;72971;47.204;8.582;2023-11-21T00:46:15;1.27;;;0.70;;
83097;SDS011;72971;47.204;8.582;2023-11-21T00:51:18;0.60;;;0.50;;
83097;SDS011;72971;47.204;8.582;2023-11-21T00:56:20;0.78;;;0.60;;
83097;SDS011;72971;47.204;8.582;2023-11-21T01:01:23;1.37;;;0.70;;
83097;SDS011;72971;47.204;8.582;2023-11-21T01:06:26;0.62;;;0.50;;
83097;SDS011;72971;47.204;8.582;2023-11-21T01:11:28;1.20;;;0.55;;
83097;SDS011;72971;47.204;8.582;2023-11-21T01:16:31;0.70;;;0.50;;
83097;SDS011;72971;47.204;8.582;2023-11-21T01:21:34;0.75;;;0.40;;
83097;SDS011;72971;47.204;8.582;2023-11-21T01:26:36;0.95;;;0.53;;
83097;SDS011;72971;47.204;8.582;2023-11-21T01:31:39;0.60;;;0.60;;
83097;SDS011;72971;47.204;8.582;2023-11-21T01:36:42;1.05;;;0.50;;
83097;SDS011;72971;47.204;8.582;2023-11-21T01:41:45;0.93;;;0.62;;
83097;SDS011;72971;47.204;8.582;2023-11-21T01:46:47;0.88;;;0.57;;
83097;SDS011;72971;47.204;8.582;2023-11-21T01:51:50;0.68;;;0.40;;
83097;SDS011;72971;47.204;8.582;2023-11-21T01:56:53;0.65;;;0.53;;
83097;SDS011;72971;47.204;8.582;2023-11-21T02:01:55;0.88;;;0.60;;
83097;SDS011;72971;47.204;8.582;2023-11-21T02:06:59;1.52;;;0.70;;
83097;SDS011;72971;47.204;8.582;2023-11-21T02:12:02;0.60;;;0.50;;
83097;SDS011;72971;47.204;8.582;2023-11-21T02:17:05;0.72;;;0.50;;
83097;SDS011;72971;47.204;8.582;2023-11-21T02:22:08;0.45;;;0.42;;
83097;SDS011;72971;47.204;8.582;2023-11-21T02:27:12;0.93;;;0.68;;
83097;SDS011;72971;47.204;8.582;2023-11-21T02:32:17;0.82;;;0.60;;
83097;SDS011;72971;47.204;8.582;2023-11-21T02:37:20;0.95;;;0.60;;
83097;SDS011;72971;47.204;8.582;2023-11-21T02:42:22;1.22;;;0.72;;
83097;SDS011;72971;47.204;8.582;2023-11-21T02:47:25;0.65;;;0.50;;
83097;SDS011;72971;47.204;8.582;2023-11-21T02:52:27;0.70;;;0.47;;
83097;SDS011;72971;47.204;8.582;2023-11-21T02:57:30;0.80;;;0.55;;
83097;SDS011;72971;47.204;8.582;2023-11-21T03:02:32;0.72;;;0.50;;
83097;SDS011;72971;47.204;8.582;2023-11-21T03:07:38;0.50;;;0.50;;
83097;SDS011;72971;47.204;8.582;2023-11-21T03:12:41;0.90;;;0.53;;
83097;SDS011;72971;47.204;8.582;2023-11-21T03:17:45;0.85;;;0.50;;
83097;SDS011;72971;47.204;8.582;2023-11-21T03:22:49;0.72;;;0.55;;
83097;SDS011;72971;47.204;8.582;2023-11-21T03:27:52;0.78;;;0.40;;
83097;SDS011;72971;47.204;8.582;2023-11-21T03:32:54;0.95;;;0.62;;
83097;SDS011;72971;47.204;8.582;2023-11-21T03:37:57;0.90;;;0.50;;
83097;SDS011;72971;47.204;8.582;2023-11-21T03:43:00;0.70;;;0.70;;
83097;SDS011;72971;47.204;8.582;2023-11-21T03:48:02;1.02;;;0.50;;
83097;SDS011;72971;47.204;8.582;2023-11-21T03:53:05;0.98;;;0.50;;
83097;SDS011;72971;47.204;8.582;2023-11-21T03:58:07;1.00;;;0.57;;
83097;SDS011;72971;47.204;8.582;2023-11-21T04:03:10;0.68;;;0.57;;
83097;SDS011;72971;47.204;8.582;2023-11-21T04:08:13;0.57;;;0.40;;
83097;SDS011;72971;47.204;8.582;2023-11-21T04:13:16;1.12;;;0.70;;
83097;SDS011;72971;47.204;8.582;2023-11-21T04:18:18;1.35;;;0.70;;
83097;SDS011;72971;47.204;8.582;2023-11-21T04:23:21;0.70;;;0.45;;
83097;SDS011;72971;47.204;8.582;2023-11-21T04:28:23;0.50;;;0.40;;
83097;SDS011;72971;47.204;8.582;2023-11-21T04:33:26;1.05;;;0.55;;
83097;SDS011;72971;47.204;8.582;2023-11-21T04:38:29;0.80;;;0.50;;
83097;SDS011;72971;47.204;8.582;2023-11-21T04:43:33;0.75;;;0.50;;
83097;SDS011;72971;47.204;8.582;2023-11-21T04:48:35;0.72;;;0.60;;
83097;SDS011;72971;47.204;8.582;2023-11-21T04:53:38;1.60;;;0.55;;
83097;SDS011;72971;47.204;8.582;2023-11-21T04:58:40;0.90;;;0.50;;
83097;SDS011;72971;47.204;8.582;2023-11-21T05:03:43;0.85;;;0.62;;
83097;SDS011;72971;47.204;8.582;2023-11-21T05:08:47;0.68;;;0.60;;
83097;SDS011;72971;47.204;8.582;2023-11-21T05:13:50;0.60;;;0.40;;
83097;SDS011;72971;47.204;8.582;2023-11-21T05:18:52;0.60;;;0.55;;
83097;SDS011;72971;47.204;8.582;2023-11-21T05:23:56;1.07;;;0.50;;
83097;SDS011;72971;47.204;8.582;2023-11-21T05:28:59;0.85;;;0.53;;
83097;SDS011;72971;47.204;8.582;2023-11-21T05:34:02;1.30;;;0.60;;
83097;SDS011;72971;47.204;8.582;2023-11-21T05:39:06;0.60;;;0.60;;
83097;SDS011;72971;47.204;8.582;2023-11-21T05:44:08;1.05;;;0.57;;
83097;SDS011;72971;47.204;8.582;2023-11-21T05:49:11;0.80;;;0.70;;
83097;SDS011;72971;47.204;8.582;2023-11-21T05:54:13;0.60;;;0.50;;
83097;SDS011;72971;47.204;8.582;2023-11-21T05:59:16;0.82;;;0.53;;
83097;SDS011;72971;47.204;8.582;2023-11-21T06:04:18;0.50;;;0.50;;
83097;SDS011;72971;47.204;8.582;2023-11-21T06:09:22;0.60;;;0.53;;
83097;SDS011;72971;47.204;8.582;2023-11-21T06:14:26;0.57;;;0.55;;
83097;SDS011;72971;47.204;8.582;2023-11-21T06:19:28;0.70;;;0.57;;
83097;SDS011;72971;47.204;8.582;2023-11-21T06:24:31;0.90;;;0.50;;
83097;SDS011;72971;47.204;8.582;2023-11-21T06:29:33;0.90;;;0.57;;
83097;SDS011;72971;47.204;8.582;2023-11-21T06:34:36;0.75;;;0.65;;
83097;SDS011;72971;47.204;8.582;2023-11-21T06:39:38;0.68;;;0.50;;
83097;SDS011;72971;47.204;8.582;2023-11-21T06:44:41;0.70;;;0.60;;
83097;SDS011;72971;47.204;8.582;2023-11-21T06:49:45;0.70;;;0.70;;
83097;SDS011;72971;47.204;8.582;2023-11-21T06:54:49;1.00;;;0.50;;
83097;SDS011;72971;47.204;8.582;2023-11-21T06:59:52;0.72;;;0.50;;
83097;SDS011;72971;47.204;8.582;2023-11-21T07:04:54;1.25;;;0.80;;
83097;SDS011;72971;47.204;8.582;2023-11-21T07:09:57;0.82;;;0.53;;
83097;SDS011;72971;47.204;8.582;2023-11-21T07:15:01;0.80;;;0.50;;
83097;SDS011;72971;47.204;8.582;2023-11-21T07:20:06;0.60;;;0.50;;
83097;SDS011;72971;47.204;8.582;2023-11-21T07:25:09;0.65;;;0.50;;
83097;SDS011;72971;47.204;8.582;2023-11-21T07:30:13;0.68;;;0.50;;
83097;SDS011;72971;47.204;8.582;2023-11-21T07:35:15;0.90;;;0.65;;
83097;SDS011;72971;47.204;8.582;2023-11-21T07:40:18;1.15;;;0.70;;
83097;SDS011;72971;47.204;8.582;2023-11-21T07:45:21;0.70;;;0.50;;
83097;SDS011;72971;47.204;8.582;2023-11-21T07:50:23;0.80;;;0.50;;
83097;SDS011;72971;47.204;8.582;2023-11-21T07:55:27;0.68;;;0.50;;
83097;SDS011;72971;47.204;8.582;2023-11-21T08:00:31;0.72;;;0.50;;
83097;SDS011;72971;47.204;8.582;2023-11-21T08:05:35;1.50;;;0.72;;
83097;SDS011;72971;47.204;8.582;2023-11-21T08:10:38;1.05;;;0.70;;
83097;SDS011;72971;47.204;8.582;2023-11-21T08:15:41;0.50;;;0.40;;
83097;SDS011;72971;47.204;8.582;2023-11-21T08:20:47;0.82;;;0.60;;
83097;SDS011;72971;47.204;8.582;2023-11-21T08:25:50;0.70;;;0.50;;
83097;SDS011;72971;47.204;8.582;2023-11-21T08:30:56;0.98;;;0.60;;
83097;SDS011;72971;47.204;8.582;2023-11-21T08:35:58;1.22;;;0.70;;
83097;SDS011;72971;47.204;8.582;2023-11-21T08:41:02;0.60;;;0.50;;
83097;SDS011;72971;47.204;8.582;2023-11-21T08:46:08;0.70;;;0.60;;
83097;SDS011;72971;47.204;8.582;2023-11-21T08:51:10;0.60;;;0.50;;
83097;SDS011;72971;47.204;8.582;2023-11-21T08:56:14;0.90;;;0.60;;
83097;SDS011;72971;47.204;8.582;2023-11-21T09:01:17;1.25;;;0.80;;
83097;SDS011;72971;47.204;8.582;2023-11-21T09:06:19;1.17;;;0.80;;
83097;SDS011;72971;47.204;8.582;2023-11-21T09:11:22;1.32;;;0.88;;
83097;SDS011;72971;47.204;8.582;2023-11-21T09:16:26;1.50;;;0.80;;
83097;SDS011;72971;47.204;8.582;2023-11-21T09:21:28;0.90;;;0.80;;
83097;SDS011;72971;47.204;8.582;2023-11-21T09:26:31;1.70;;;1.00;;
83097;SDS011;72971;47.204;8.582;2023-11-21T09:31:33;1.67;;;1.10;;
83097;SDS011;72971;47.204;8.582;2023-11-21T09:36:36;2.25;;;1.10;;
83097;SDS011;72971;47.204;8.582;2023-11-21T09:41:44;3.35;;;1.07;;
83097;SDS011;72971;47.204;8.582;2023-11-21T09:46:58;3.22;;;0.90;;
83097;SDS011;72971;47.204;8.582;2023-11-21T09:52:01;2.52;;;0.98;;
83097;SDS011;72971;47.204;8.582;2023-11-21T09:57:05;1.27;;;0.95;;
83097;SDS011;72971;47.204;8.582;2023-11-21T10:02:07;1.62;;;1.10;;
83097;SDS011;72971;47.204;8.582;2023-11-21T10:07:13;2.10;;;1.00;;
83097;SDS011;72971;47.204;8.582;2023-11-21T10:12:17;2.02;;;1.00;;
83097;SDS011;72971;47.204;8.582;2023-11-21T10:17:21;2.35;;;1.00;;
83097;SDS011;72971;47.204;8.582;2023-11-21T10:22:31;1.65;;;0.93;;
83097;SDS011;72971;47.204;8.582;2023-11-21T10:27:36;3.90;;;1.22;;
83097;SDS011;72971;47.204;8.582;2023-11-21T10:32:43;2.67;;;1.00;;
83097;SDS011;72971;47.204;8.582;2023-11-21T10:37:47;1.77;;;1.30;;
83097;SDS011;72971;47.204;8.582;2023-11-21T10:42:53;1.67;;;1.20;;
83097;SDS011;72971;47.204;8.582;2023-11-21T10:47:57;2.72;;;1.50;;
83097;SDS011;72971;47.204;8.582;2023-11-21T10:53:00;1.57;;;1.20;;
83097;SDS011;72971;47.204;8.582;2023-11-21T10:58:04;1.57;;;1.12;;
83097;SDS011;72971;47.204;8.582;2023-11-21T11:03:08;1.62;;;1.02;;
83097;SDS011;72971;47.204;8.582;2023-11-21T11:08:13;1.25;;;1.00;;
83097;SDS011;72971;47.204;8.582;2023-11-21T11:13:19;3.15;;;1.20;;
83097;SDS011;72971;47.204;8.582;2023-11-21T11:18:22;1.95;;;1.15;;
83097;SDS011;72971;47.204;8.582;2023-11-21T11:23:45;2.98;;;1.20;;
83097;SDS011;72971;47.204;8.582;2023-11-21T11:39:35;1.40;;;0.90;;
83097;SDS011;72971;47.204;8.582;2023-11-21T11:44:46;2.25;;;0.93;;
83097;SDS011;72971;47.204;8.582;2023-11-21T11:50:05;1.00;;;0.90;;
83097;SDS011;72971;47.204;8.582;2023-11-21T11:55:14;1.62;;;1.00;;
83097;SDS011;72971;47.204;8.582;2023-11-21T12:05:34;1.30;;;1.10;;
83097;SDS011;72971;47.204;8.582;2023-11-21T12:10:39;1.67;;;0.90;;
83097;SDS011;72971;47.204;8.582;2023-11-21T12:15:43;2.60;;;1.00;;
83097;SDS011;72971;47.204;8.582;2023-11-21T12:20:46;1.92;;;1.10;;
83097;SDS011;72971;47.204;8.582;2023-11-21T12:25:51;1.30;;;1.00;;
83097;SDS011;72971;47.204;8.582;2023-11-21T12:30:54;2.30;;;1.00;;
83097;SDS011;72971;47.204;8.582;2023-11-21T12:35:58;1.85;;;1.07;;
83097;SDS011;72971;47.204;8.582;2023-11-21T12:41:00;1.10;;;1.00;;
83097;SDS011;72971;47.204;8.582;2023-11-21T12:46:14;1.72;;;1.20;;
83097;SDS011;72971;47.204;8.582;2023-11-21T12:51:14;1.45;;;1.00;;
83097;SDS011;72971;47.204;8.582;2023-11-21T12:56:20;1.40;;;1.00;;
83097;SDS011;72971;47.204;8.582;2023-11-21T13:01:25;2.17;;;0.93;;
83097;SDS011;72971;47.204;8.582;2023-11-21T13:06:29;1.27;;;1.02;;
83097;SDS011;72971;47.204;8.582;2023-11-21T13:11:35;3.10;;;1.05;;
83097;SDS011;72971;47.204;8.582;2023-11-21T13:16:40;1.60;;;0.90;;
83097;SDS011;72971;47.204;8.582;2023-11-21T13:21:44;2.12;;;1.17;;
83097;SDS011;72971;47.204;8.582;2023-11-21T13:26:47;1.37;;;1.07;;
83097;SDS011;72971;47.204;8.582;2023-11-21T13:31:50;2.58;;;1.10;;
83097;SDS011;72971;47.204;8.582;2023-11-21T13:36:54;2.65;;;1.40;;
83097;SDS011;72971;47.204;8.582;2023-11-21T13:41:58;2.87;;;1.70;;
83097;SDS011;72971;47.204;8.582;2023-11-21T13:47:00;3.12;;;1.42;;
83097;SDS011;72971;47.204;8.582;2023-11-21T13:52:03;3.72;;;2.08;;
83097;SDS011;72971;47.204;8.582;2023-11-21T13:57:08;3.20;;;1.98;;
83097;SDS011;72971;47.204;8.582;2023-11-21T14:02:10;5.12;;;1.75;;
83097;SDS011;72971;47.204;8.582;2023-11-21T14:07:14;3.83;;;1.77;;
83097;SDS011;72971;47.204;8.582;2023-11-21T14:12:21;3.92;;;1.98;;
83097;SDS011;72971;47.204;8.582;2023-11-21T14:17:24;2.90;;;2.00;;
83097;SDS011;72971;47.204;8.582;2023-11-21T14:22:28;3.15;;;1.80;;
83097;SDS011;72971;47.204;8.582;2023-11-21T14:27:30;2.87;;;1.60;;
83097;SDS011;72971;47.204;8.582;2023-11-21T14:32:34;3.05;;;2.08;;
83097;SDS011;72971;47.204;8.582;2023-11-21T14:37:38;2.40;;;1.77;;
83097;SDS011;72971;47.204;8.582;2023-11-21T14:42:40;2.55;;;1.80;;
83097;SDS011;72971;47.204;8.582;2023-11-21T14:47:48;1.90;;;1.57;;
83097;SDS011;72971;47.204;8.582;2023-11-21T14:52:52;2.20;;;1.52;;
83097;SDS011;72971;47.204;8.582;2023-11-21T14:57:57;4.10;;;2.27;;
83097;SDS011;72971;47.204;8.582;2023-11-21T15:03:02;2.90;;;1.77;;
83097;SDS011;72971;47.204;8.582;2023-11-21T15:08:05;2.95;;;1.77;;
83097;SDS011;72971;47.204;8.582;2023-11-21T15:13:25;2.62;;;1.77;;
83097;SDS011;72971;47.204;8.582;2023-11-21T15:18:29;4.30;;;1.85;;
83097;SDS011;72971;47.204;8.582;2023-11-21T15:23:32;2.85;;;1.77;;
83097;SDS011;72971;47.204;8.582;2023-11-21T15:28:35;2.00;;;1.40;;
83097;SDS011;72971;47.204;8.582;2023-11-21T15:33:38;2.90;;;1.98;;
83097;SDS011;72971;47.204;8.582;2023-11-21T15:38:41;4.20;;;2.10;;
83097;SDS011;72971;47.204;8.582;2023-11-21T15:43:44;4.12;;;1.95;;
83097;SDS011;72971;47.204;8.582;2023-11-21T15:48:48;2.30;;;1.75;;
83097;SDS011;72971;47.204;8.582;2023-11-21T15:53:53;5.45;;;2.00;;
83097;SDS011;72971;47.204;8.582;2023-11-21T15:58:55;2.37;;;1.60;;
83097;SDS011;72971;47.204;8.582;2023-11-21T16:03:58;3.90;;;1.72;;
83097;SDS011;72971;47.204;8.582;2023-11-21T16:09:01;4.37;;;1.80;;
83097;SDS011;72971;47.204;8.582;2023-11-21T16:14:05;3.77;;;1.77;;
83097;SDS011;72971;47.204;8.582;2023-11-21T16:19:07;4.28;;;2.02;;
83097;SDS011;72971;47.204;8.582;2023-11-21T16:24:10;2.20;;;1.62;;
83097;SDS011;72971;47.204;8.582;2023-11-21T16:29:13;1.80;;;1.45;;
83097;SDS011;72971;47.204;8.582;2023-11-21T16:34:18;1.90;;;1.70;;
83097;SDS011;72971;47.204;8.582;2023-11-21T16:39:22;3.10;;;1.90;;
83097;SDS011;72971;47.204;8.582;2023-11-21T16:44:25;3.08;;;2.10;;
83097;SDS011;72971;47.204;8.582;2023-11-21T16:49:28;3.80;;;1.70;;
83097;SDS011;72971;47.204;8.582;2023-11-21T16:54:32;2.15;;;1.70;;
83097;SDS011;72971;47.204;8.582;2023-11-21T16:59:34;2.77;;;1.98;;
83097;SDS011;72971;47.204;8.582;2023-11-21T17:04:37;4.78;;;2.00;;
83097;SDS011;72971;47.204;8.582;2023-11-21T17:09:41;4.85;;;1.82;;
83097;SDS011;72971;47.204;8.582;2023-11-21T17:14:44;3.33;;;1.95;;
83097;SDS011;72971;47.204;8.582;2023-11-21T17:19:48;3.12;;;1.95;;
83097;SDS011;72971;47.204;8.582;2023-11-21T17:24:51;2.80;;;1.80;;
83097;SDS011;72971;47.204;8.582;2023-11-21T17:29:54;4.50;;;1.95;;
83097;SDS011;72971;47.204;8.582;2023-11-21T17:34:57;2.95;;;1.75;;
83097;SDS011;72971;47.204;8.582;2023-11-21T17:40:00;4.53;;;2.17;;
83097;SDS011;72971;47.204;8.582;2023-11-21T17:45:05;2.42;;;1.85;;
83097;SDS011;72971;47.204;8.582;2023-11-21T17:50:08;3.92;;;2.08;;
83097;SDS011;72971;47.204;8.582;2023-11-21T17:55:11;3.10;;;2.08;;
83097;SDS011;72971;47.204;8.582;2023-11-21T18:00:14;2.52;;;1.70;;
83097;SDS011;72971;47.204;8.582;2023-11-21T18:05:17;4.37;;;1.80;;
83097;SDS011;72971;47.204;8.582;2023-11-21T18:10:22;2.70;;;1.60;;
83097;SDS011;72971;47.204;8.582;2023-11-21T18:15:24;2.65;;;1.70;;
83097;SDS011;72971;47.204;8.582;2023-11-21T18:20:27;2.40;;;1.50;;
83097;SDS011;72971;47.204;8.582;2023-11-21T18:25:30;2.42;;;1.60;;
83097;SDS011;72971;47.204;8.582;2023-11-21T18:30:34;2.20;;;1.42;;
83097;SDS011;72971;47.204;8.582;2023-11-21T18:35:36;1.72;;;1.50;;
83097;SDS011;72971;47.204;8.582;2023-11-21T18:40:39;2.00;;;1.47;;
83097;SDS011;72971;47.204;8.582;2023-11-21T18:45:41;1.60;;;1.37;;
83097;SDS011;72971;47.204;8.582;2023-11-21T18:50:45;1.80;;;1.45;;
83097;SDS011;72971;47.204;8.582;2023-11-21T18:55:49;2.50;;;1.45;;
83097;SDS011;72971;47.204;8.582;2023-11-21T19:00:52;2.08;;;1.40;;
83097;SDS011;72971;47.204;8.582;2023-11-21T19:05:54;2.08;;;1.57;;
83097;SDS011;72971;47.204;8.582;2023-11-21T19:10:57;2.22;;;1.40;;
83097;SDS011;72971;47.204;8.582;2023-11-21T19:15:59;1.92;;;1.35;;
83097;SDS011;72971;47.204;8.582;2023-11-21T19:21:02;1.65;;;1.40;;
83097;SDS011;72971;47.204;8.582;2023-11-21T19:26:04;2.47;;;1.62;;
83097;SDS011;72971;47.204;8.582;2023-11-21T19:31:14;3.12;;;1.60;;
83097;SDS011;72971;47.204;8.582;2023-11-21T19:36:21;2.05;;;1.50;;
83097;SDS011;72971;47.204;8.582;2023-11-21T19:41:24;2.22;;;1.60;;
83097;SDS011;72971;47.204;8.582;2023-11-21T19:46:28;1.80;;;1.40;;
83097;SDS011;72971;47.204;8.582;2023-11-21T19:51:30;1.80;;;1.60;;
83097;SDS011;72971;47.204;8.582;2023-11-21T19:56:33;2.45;;;1.55;;
83097;SDS011;72971;47.204;8.582;2023-11-21T20:01:36;2.17;;;1.70;;
83097;SDS011;72971;47.204;8.582;2023-11-21T20:06:40;2.75;;;1.57;;
83097;SDS011;72971;47.204;8.582;2023-11-21T20:11:43;1.80;;;1.40;;
83097;SDS011;72971;47.204;8.582;2023-11-21T20:16:47;2.05;;;1.55;;
83097;SDS011;72971;47.204;8.582;2023-11-21T20:21:50;1.98;;;1.35;;
83097;SDS011;72971;47.204;8.582;2023-11-21T20:27:00;1.90;;;1.50;;
83097;SDS011;72971;47.204;8.582;2023-11-21T20:31:58;1.60;;;1.20;;
83097;SDS011;72971;47.204;8.582;2023-11-21T20:37:00;1.42;;;1.30;;
83097;SDS011;72971;47.204;8.582;2023-11-21T20:42:03;1.77;;;1.32;;
83097;SDS011;72971;47.204;8.582;2023-11-21T20:47:06;2.25;;;1.45;;
83097;SDS011;72971;47.204;8.582;2023-11-21T20:52:08;1.60;;;1.30;;
83097;SDS011;72971;47.204;8.582;2023-11-21T20:57:11;1.77;;;1.17;;
83097;SDS011;72971;47.204;8.582;2023-11-21T21:02:14;1.60;;;1.20;;
83097;SDS011;72971;47.204;8.582;2023-11-21T21:07:18;2.25;;;1.22;;
83097;SDS011;72971;47.204;8.582;2023-11-21T21:12:21;1.62;;;1.40;;
83097;SDS011;72971;47.204;8.582;2023-11-21T21:17:23;1.35;;;1.10;;
83097;SDS011;72971;47.204;8.582;2023-11-21T21:22:26;1.65;;;1.30;;
83097;SDS011;72971;47.204;8.582;2023-11-21T21:27:29;2.75;;;1.30;;
83097;SDS011;72971;47.204;8.582;2023-11-21T21:32:32;1.32;;;1.05;;
83097;SDS011;72971;47.204;8.582;2023-11-21T21:37:34;1.70;;;1.30;;
83097;SDS011;72971;47.204;8.582;2023-11-21T21:42:37;1.75;;;1.15;;
83097;SDS011;72971;47.204;8.582;2023-11-21T21:47:40;1.75;;;1.37;;
83097;SDS011;72971;47.204;8.582;2023-11-21T21:52:42;1.80;;;1.40;;
83097;SDS011;72971;47.204;8.582;2023-11-21T21:57:45;2.25;;;1.20;;
83097;SDS011;72971;47.204;8.582;2023-11-21T22:02:48;1.67;;;1.30;;
83097;SDS011;72971;47.204;8.582;2023-11-21T22:07:50;1.30;;;1.20;;
83097;SDS011;72971;47.204;8.582;2023-11-21T22:12:53;1.62;;;1.32;;
83097;SDS011;72971;47.204;8.582;2023-11-21T22:17:56;2.00;;;1.10;;
83097;SDS011;72971;47.204;8.582;2023-11-21T22:22:59;1.42;;;1.10;;
83097;SDS011;72971;47.204;8.582;2023-11-21T22:28:02;1.52;;;1.17;;
83097;SDS011;72971;47.204;8.582;2023-11-21T22:33:05;2.25;;;1.17;;
83097;SDS011;72971;47.204;8.582;2023-11-21T22:38:08;1.50;;;1.10;;
83097;SDS011;72971;47.204;8.582;2023-11-21T22:43:12;2.60;;;1.37;;
83097;SDS011;72971;47.204;8.582;2023-11-21T22:48:17;1.87;;;1.30;;
83097;SDS011;72971;47.204;8.582;2023-11-21T22:53:19;1.35;;;1.20;;
83097;SDS011;72971;47.204;8.582;2023-11-21T22:58:22;1.12;;;1.00;;
83097;SDS011;72971;47.204;8.582;2023-11-21T23:03:24;1.32;;;1.20;;
83097;SDS011;72971;47.204;8.582;2023-11-21T23:08:27;1.65;;;1.30;;
83097;SDS011;72971;47.204;8.582;2023-11-21T23:13:30;1.10;;;0.95;;
83097;SDS011;72971;47.204;8.582;2023-11-21T23:18:33;1.82;;;1.20;;
83097;SDS011;72971;47.204;8.582;2023-11-21T23:23:35;1.00;;;0.90;;
83097;SDS011;72971;47.204;8.582;2023-11-21T23:28:40;1.67;;;1.10;;
83097;SDS011;72971;47.204;8.582;2023-11-21T23:33:43;1.57;;;1.40;;
83097;SDS011;72971;47.204;8.582;2023-11-21T23:38:46;1.30;;;0.90;;
83097;SDS011;72971;47.204;8.582;2023-11-21T23:43:49;1.40;;;1.10;;
83097;SDS011;72971;47.204;8.582;2023-11-21T23:48:51;1.45;;;1.00;;
83097;SDS011;72971;47.204;8.582;2023-11-21T23:53:54;1.70;;;1.20;;
83097;SDS011;72971;47.204;8.582;2023-11-21T23:58:57;1.62;;;0.90;;
